Terminal Aerodrome Forecast
Issued by NWS Upton, NY

Home | Current Version | Previous Version | Text Only | Print | Product List | Glossary On
Versions: 1 2 3 4 5 6 7 8 9 10 11 12 13 14 15 16 17 18 19 20 21 22 23 24 25 26 27 28 29
166
FTUS41 KOKX 112331
TAFLGA
TAF
KLGA 112331Z 1200/1306 26006KT P6SM FEW045 OVC250
     FM120300 17005KT P6SM FEW045 BKN150
     FM121000 15008KT P6SM VCSH SCT030 OVC100
     FM121300 19012G18KT 6SM -RA BKN025
     FM121900 25013KT P6SM OVC025
     FM130000 28017G25KT P6SM BKN050=

USA.gov is the U.S. government's official web portal to all federal, state and local government web resources and services.